Time;durP1;ratioP1;P1;durP2;ratioP2;P2;SDS_P1;SDS_P2;PMS_P1;PMS_P2;Temp;Humidity;BMP_temperature;BMP_pressure;BME280_temperature;BME280_humidity;BME280_pressure;Samples;Min_cycle;Max_cycle;Signal;HPM_P1;HPM_P2
2022/01/11 00:01:01;;;;;;;122.72;49.72;;;0.50;99.90;;;;;;6074291;23;20101;-83
2022/01/11 00:03:27;;;;;;;112.50;44.55;;;0.50;99.90;;;;;;6050820;23;20119;-81
2022/01/11 00:06:16;;;;;;;130.40;48.33;;;0.50;99.90;;;;;;6097258;23;20022;-82
2022/01/11 00:08:53;;;;;;;115.07;46.03;;;0.50;99.90;;;;;;6072859;23;20023;-82
2022/01/11 00:11:22;;;;;;;89.53;41.75;;;0.50;99.90;;;;;;6070746;23;20026;-82
2022/01/11 00:13:48;;;;;;;93.93;41.30;;;0.50;99.90;;;;;;6047245;23;20022;-81
2022/01/11 00:16:21;;;;;;;93.70;41.63;;;0.50;99.90;;;;;;6072694;23;20408;-82
2022/01/11 00:18:50;;;;;;;90.25;41.65;;;0.50;99.90;;;;;;6071691;23;20086;-82
2022/01/11 00:21:21;;;;;;;83.55;40.92;;;0.50;99.90;;;;;;6071620;23;20022;-82
2022/01/11 00:26:35;;;;;;;81.05;39.30;;;0.50;99.90;;;;;;6094135;23;20529;-82
2022/01/11 00:29:01;;;;;;;77.65;38.72;;;0.50;99.90;;;;;;6047331;23;20107;-82
2022/01/11 00:31:30;;;;;;;79.50;39.20;;;0.50;99.90;;;;;;6076620;23;20037;-83
2022/01/11 00:33:56;;;;;;;76.65;39.05;;;0.50;99.90;;;;;;6094599;23;20156;-82
2022/01/11 00:36:29;;;;;;;75.32;39.45;;;0.50;99.90;;;;;;6096374;23;20038;-82
2022/01/11 00:38:55;;;;;;;78.05;38.30;;;0.50;99.90;;;;;;6047040;23;20354;-82
2022/01/11 00:41:21;;;;;;;76.13;38.20;;;0.50;99.90;;;;;;6070609;23;20026;-81
2022/01/11 00:43:47;;;;;;;64.43;36.17;;;0.50;99.90;;;;;;6070355;23;20466;-81
2022/01/11 00:46:14;;;;;;;70.28;35.40;;;0.50;99.90;;;;;;6096396;23;20455;-82
2022/01/11 00:48:40;;;;;;;75.43;37.60;;;0.50;99.90;;;;;;6096843;23;20405;-81
2022/01/11 00:51:07;;;;;;;69.53;36.28;;;0.50;99.90;;;;;;6071019;23;20060;-82
2022/01/11 00:53:33;;;;;;;76.05;37.13;;;0.50;99.90;;;;;;6074454;23;20082;-83
2022/01/11 00:56:00;;;;;;;75.57;36.53;;;0.50;99.90;;;;;;6072792;23;20022;-82
2022/01/11 00:58:26;;;;;;;64.95;33.90;;;0.50;99.90;;;;;;6047188;23;20470;-81
2022/01/11 01:00:52;;;;;;;64.28;35.08;;;0.50;99.90;;;;;;6095636;23;20466;-81
2022/01/11 01:03:18;;;;;;;63.78;33.40;;;0.40;99.90;;;;;;6072963;23;20430;-80
2022/01/11 01:05:44;;;;;;;60.78;33.70;;;0.40;99.90;;;;;;6049232;23;20054;-81
2022/01/11 01:08:14;;;;;;;68.95;34.92;;;0.50;99.90;;;;;;6072411;23;20030;-81
2022/01/11 01:10:46;;;;;;;70.68;35.42;;;0.50;99.90;;;;;;6047680;23;20023;-81
2022/01/11 01:13:23;;;;;;;67.15;36.28;;;0.50;99.90;;;;;;6070497;23;20046;-81
2022/01/11 01:15:50;;;;;;;64.63;33.05;;;0.50;99.90;;;;;;6070625;23;20018;-81
2022/01/11 01:18:21;;;;;;;66.15;35.05;;;0.40;99.90;;;;;;6070812;23;20593;-82
2022/01/11 01:20:47;;;;;;;66.47;33.08;;;0.50;99.90;;;;;;6094627;23;20026;-82
2022/01/11 01:23:14;;;;;;;55.42;31.45;;;0.50;99.90;;;;;;6095802;23;20033;-82
2022/01/11 01:25:42;;;;;;;62.95;33.95;;;0.50;99.90;;;;;;6094030;23;20023;-82
2022/01/11 01:28:09;;;;;;;59.63;31.48;;;0.50;99.90;;;;;;6095560;23;20026;-82
2022/01/11 01:30:35;;;;;;;65.45;32.40;;;0.40;99.90;;;;;;6098227;23;20022;-83
2022/01/11 01:33:02;;;;;;;59.20;30.25;;;0.40;99.90;;;;;;6048323;23;20029;-82
2022/01/11 01:35:34;;;;;;;58.25;29.02;;;0.40;99.90;;;;;;6047278;23;20035;-81
2022/01/11 01:38:00;;;;;;;56.50;31.58;;;0.40;99.90;;;;;;6025708;23;20488;-82
2022/01/11 01:40:33;;;;;;;54.92;29.77;;;0.40;99.90;;;;;;6072138;23;20407;-81
2022/01/11 01:42:59;;;;;;;45.03;26.15;;;0.40;99.90;;;;;;6072478;23;20029;-82
2022/01/11 01:45:25;;;;;;;65.43;30.40;;;0.40;99.90;;;;;;6072192;23;20018;-81
2022/01/11 01:47:56;;;;;;;51.03;28.70;;;0.40;99.90;;;;;;6072336;23;20026;-83
2022/01/11 01:50:23;;;;;;;60.63;29.75;;;0.40;99.90;;;;;;6051924;23;20027;-81
2022/01/11 01:52:49;;;;;;;55.75;29.55;;;0.40;99.90;;;;;;6099025;23;20026;-82
2022/01/11 01:55:15;;;;;;;57.53;30.52;;;0.40;99.90;;;;;;6074297;23;20022;-81
2022/01/11 01:57:44;;;;;;;54.65;29.98;;;0.40;99.90;;;;;;6098167;23;20062;-81
2022/01/11 02:00:12;;;;;;;55.00;29.67;;;0.40;99.90;;;;;;6096536;23;20022;-81
2022/01/11 02:02:41;;;;;;;52.38;28.70;;;0.50;99.90;;;;;;6096048;23;20106;-82
2022/01/11 02:05:08;;;;;;;56.85;29.88;;;0.50;99.90;;;;;;6071803;23;20022;-83
2022/01/11 02:07:34;;;;;;;55.08;29.10;;;0.50;99.90;;;;;;6046229;23;20055;-82
2022/01/11 02:10:01;;;;;;;55.05;27.30;;;0.50;99.90;;;;;;6048032;23;20413;-82
2022/01/11 02:12:28;;;;;;;49.80;28.00;;;0.50;99.90;;;;;;6071941;23;20026;-82
2022/01/11 02:14:55;;;;;;;50.95;28.85;;;0.60;99.90;;;;;;6095872;23;20074;-82
2022/01/11 02:17:33;;;;;;;55.30;27.10;;;0.60;99.90;;;;;;6026241;23;20022;-83
2022/01/11 02:20:13;;;;;;;48.60;24.90;;;0.60;99.90;;;;;;6049431;23;20087;-82
2022/01/11 02:23:01;;;;;;;45.60;24.40;;;0.60;99.90;;;;;;6077085;23;20021;-81
2022/01/11 02:25:30;;;;;;;50.05;26.50;;;0.60;99.90;;;;;;6115313;23;20022;-82
2022/01/11 02:28:06;;;;;;;60.83;25.88;;;0.60;99.90;;;;;;6105490;23;20583;-82
2022/01/11 02:30:35;;;;;;;48.97;25.30;;;0.60;99.90;;;;;;6100053;23;20022;-82
2022/01/11 02:33:08;;;;;;;59.33;26.88;;;0.60;99.90;;;;;;6077632;23;20469;-82
2022/01/11 02:35:34;;;;;;;51.22;25.25;;;0.60;99.90;;;;;;6100358;23;20049;-83
2022/01/11 02:38:09;;;;;;;58.65;29.63;;;0.60;99.90;;;;;;6124836;23;20025;-82
2022/01/11 02:40:38;;;;;;;50.28;24.95;;;0.60;99.90;;;;;;6097903;23;20029;-82
2022/01/11 02:43:05;;;;;;;56.83;28.52;;;0.60;99.90;;;;;;6125910;23;20030;-81
2022/01/11 02:45:31;;;;;;;52.47;25.88;;;0.60;99.90;;;;;;6078265;23;20025;-81
2022/01/11 02:47:57;;;;;;;54.88;27.30;;;0.60;99.90;;;;;;6101418;23;20036;-82
2022/01/11 02:50:24;;;;;;;53.15;26.88;;;0.50;99.90;;;;;;6103476;23;20393;-83
2022/01/11 02:52:50;;;;;;;54.30;27.08;;;0.50;99.90;;;;;;6100732;23;20022;-82
2022/01/11 02:55:16;;;;;;;47.20;25.83;;;0.60;99.90;;;;;;6100070;23;20101;-82
2022/01/11 02:57:43;;;;;;;47.60;25.27;;;0.50;99.90;;;;;;6100228;23;20030;-82
2022/01/11 03:00:18;;;;;;;48.88;26.67;;;0.50;99.90;;;;;;6098011;23;20026;-81
2022/01/11 03:02:44;;;;;;;52.15;28.10;;;0.60;99.90;;;;;;6076731;23;20463;-81
2022/01/11 03:05:11;;;;;;;46.78;26.15;;;0.50;99.90;;;;;;6125558;23;20057;-83
2022/01/11 03:07:39;;;;;;;51.47;27.38;;;0.50;99.90;;;;;;6126994;23;20061;-81
2022/01/11 03:10:30;;;;;;;61.03;29.38;;;0.50;99.90;;;;;;6076489;23;20053;-83
2022/01/11 03:13:18;;;;;;;55.72;26.65;;;0.50;99.90;;;;;;6097904;23;20041;-81
2022/01/11 03:16:03;;;;;;;53.78;27.83;;;0.50;99.90;;;;;;6078027;23;20461;-81
2022/01/11 03:18:29;;;;;;;59.97;28.15;;;0.50;99.90;;;;;;6076439;23;20057;-81
2022/01/11 03:20:55;;;;;;;52.42;26.75;;;0.50;99.90;;;;;;6101586;23;20022;-82
2022/01/11 03:23:22;;;;;;;58.20;27.85;;;0.50;99.90;;;;;;6128308;23;20470;-81
2022/01/11 03:25:52;;;;;;;56.28;28.08;;;0.50;99.90;;;;;;6124304;23;20022;-82
2022/01/11 03:28:20;;;;;;;58.63;29.27;;;0.50;99.90;;;;;;6099548;23;20032;-82
2022/01/11 03:30:48;;;;;;;58.70;28.15;;;0.50;99.90;;;;;;6126343;23;20022;-81
2022/01/11 03:33:14;;;;;;;60.20;27.38;;;0.50;99.90;;;;;;6125591;23;20055;-82
2022/01/11 03:35:41;;;;;;;65.30;29.90;;;0.50;99.90;;;;;;6101359;23;20022;-81
2022/01/11 03:38:10;;;;;;;62.10;30.55;;;0.50;99.90;;;;;;6078265;23;20457;-82
2022/01/11 03:40:36;;;;;;;63.10;31.42;;;0.50;99.90;;;;;;6126907;23;20030;-81
2022/01/11 03:43:02;;;;;;;63.47;30.52;;;0.50;99.90;;;;;;6125576;23;20025;-81
2022/01/11 03:45:28;;;;;;;77.22;31.85;;;0.60;99.90;;;;;;6126920;23;20095;-81
2022/01/11 03:47:57;;;;;;;67.38;31.77;;;0.60;99.90;;;;;;6128826;23;20508;-82
2022/01/11 03:50:24;;;;;;;71.85;33.70;;;0.60;99.90;;;;;;6102681;23;20022;-82
2022/01/11 03:53:15;;;;;;;65.55;32.83;;;0.60;99.90;;;;;;5979850;24;20028;-82
2022/01/11 03:58:16;;;;;;;;;;;0.70;99.90;;;;;;5956424;24;20550;-82
2022/01/11 04:00:44;;;;;;;69.90;33.63;;;0.70;99.90;;;;;;5955707;24;20362;-81
2022/01/11 04:03:11;;;;;;;68.22;32.67;;;0.60;99.90;;;;;;5956594;24;20020;-81
2022/01/11 04:05:38;;;;;;;75.50;33.38;;;0.70;99.90;;;;;;5955275;24;20032;-81
2022/01/11 04:08:04;;;;;;;70.97;35.05;;;0.70;99.90;;;;;;5956539;24;20059;-82
2022/01/11 04:10:30;;;;;;;77.63;34.53;;;0.70;99.90;;;;;;5956640;24;20024;-81
2022/01/11 04:12:56;;;;;;;70.00;33.13;;;0.70;99.90;;;;;;5934300;24;20032;-82
2022/01/11 04:15:22;;;;;;;76.60;35.78;;;0.70;99.90;;;;;;5957640;24;20441;-81
2022/01/11 04:17:48;;;;;;;79.45;36.38;;;0.80;99.90;;;;;;5937769;24;20109;-82
2022/01/11 04:20:14;;;;;;;84.10;35.50;;;0.70;99.90;;;;;;5958165;24;20508;-81
2022/01/11 04:22:41;;;;;;;94.53;37.28;;;0.70;99.90;;;;;;5956899;23;20169;-82
2022/01/11 04:25:07;;;;;;;79.30;34.90;;;0.70;99.90;;;;;;5955928;24;20487;-81
2022/01/11 04:27:33;;;;;;;76.10;34.50;;;0.70;99.90;;;;;;5955630;24;20430;-83
2022/01/11 04:29:59;;;;;;;78.38;36.70;;;0.70;99.90;;;;;;6034299;23;20092;-83
2022/01/11 04:32:25;;;;;;;77.50;36.03;;;0.80;99.90;;;;;;6123599;23;20401;-82
2022/01/11 04:34:53;;;;;;;75.38;35.70;;;0.80;99.90;;;;;;6123423;23;20085;-82
2022/01/11 04:37:27;;;;;;;78.30;35.53;;;0.70;99.90;;;;;;6123362;23;20022;-83
2022/01/11 04:39:54;;;;;;;79.07;37.50;;;0.70;99.90;;;;;;6124136;23;20427;-83
2022/01/11 04:42:20;;;;;;;89.75;35.05;;;0.70;99.90;;;;;;6124177;23;20021;-82
2022/01/11 04:44:45;;;;;;;73.90;33.25;;;0.70;99.90;;;;;;6126761;23;20018;-83
2022/01/11 04:47:20;;;;;;;79.28;36.20;;;0.70;99.90;;;;;;6127517;23;20462;-82
2022/01/11 04:49:52;;;;;;;72.88;33.90;;;0.70;99.90;;;;;;6099290;23;20026;-83
2022/01/11 04:52:18;;;;;;;82.80;36.13;;;0.70;99.90;;;;;;6123694;23;20349;-82
2022/01/11 04:54:44;;;;;;;76.25;34.50;;;0.70;99.90;;;;;;6099014;23;20026;-82
2022/01/11 04:57:10;;;;;;;85.88;38.25;;;0.80;99.90;;;;;;6099377;23;20026;-82
2022/01/11 04:59:35;;;;;;;84.13;37.55;;;0.80;99.90;;;;;;6125575;23;20018;-82
2022/01/11 05:02:01;;;;;;;85.28;37.65;;;0.80;99.90;;;;;;6127168;23;20054;-81
2022/01/11 05:04:27;;;;;;;84.20;34.30;;;0.80;99.90;;;;;;6128002;23;20458;-81
2022/01/11 05:06:55;;;;;;;89.63;36.75;;;0.80;99.90;;;;;;6079246;23;20037;-82
2022/01/11 05:09:21;;;;;;;79.22;35.97;;;0.80;99.90;;;;;;6078242;23;20026;-82
2022/01/11 05:11:47;;;;;;;92.38;38.95;;;0.80;99.90;;;;;;6127780;23;20025;-81
2022/01/11 05:14:12;;;;;;;81.47;36.50;;;0.80;99.90;;;;;;6101070;23;20452;-82
2022/01/11 05:16:38;;;;;;;75.15;36.22;;;0.80;99.90;;;;;;6079087;23;20113;-83
2022/01/11 05:19:07;;;;;;;80.45;35.88;;;0.80;99.90;;;;;;6107552;23;20026;-80
2022/01/11 05:21:33;;;;;;;83.72;36.90;;;0.80;99.90;;;;;;6079358;23;20034;-81
2022/01/11 05:23:59;;;;;;;80.18;35.45;;;0.80;99.90;;;;;;6076871;23;20546;-82
2022/01/11 05:26:24;;;;;;;75.63;34.30;;;0.80;99.90;;;;;;6126700;23;20018;-81
2022/01/11 05:28:50;;;;;;;78.28;34.40;;;0.80;99.90;;;;;;6100793;23;20076;-83
2022/01/11 05:31:16;;;;;;;87.90;34.42;;;0.90;99.90;;;;;;6101387;23;20026;-83
2022/01/11 05:33:41;;;;;;;90.00;38.15;;;0.80;99.90;;;;;;6126020;23;20469;-82
2022/01/11 05:36:07;;;;;;;85.00;34.35;;;0.80;99.90;;;;;;6077293;23;20025;-81
2022/01/11 05:38:37;;;;;;;77.70;33.40;;;0.80;99.90;;;;;;6102685;23;20403;-81
2022/01/11 05:41:04;;;;;;;75.40;32.70;;;0.80;99.90;;;;;;6126029;23;20025;-82
2022/01/11 05:43:32;;;;;;;72.82;34.15;;;0.80;99.90;;;;;;6127523;23;20104;-82
2022/01/11 05:45:58;;;;;;;80.05;32.42;;;0.90;99.90;;;;;;6101293;23;20065;-82
2022/01/11 05:48:32;;;;;;;77.22;32.22;;;0.90;99.90;;;;;;6102071;23;20469;-81
2022/01/11 05:51:03;;;;;;;77.70;33.78;;;0.80;99.90;;;;;;6057404;23;20057;-82
2022/01/11 05:53:29;;;;;;;82.38;31.92;;;0.90;99.90;;;;;;6104591;23;20440;-82
2022/01/11 05:55:55;;;;;;;67.78;30.98;;;0.90;99.90;;;;;;6125469;23;20089;-81
2022/01/11 05:58:20;;;;;;;81.40;32.38;;;0.90;99.90;;;;;;6101323;23;20030;-81
2022/01/11 06:00:46;;;;;;;78.80;31.55;;;0.90;99.90;;;;;;6101160;23;20445;-81
2022/01/11 06:03:12;;;;;;;87.43;35.47;;;0.90;99.90;;;;;;6100937;23;20488;-81
2022/01/11 06:05:39;;;;;;;66.43;28.35;;;0.90;99.90;;;;;;6124947;23;20040;-81
2022/01/11 06:08:06;;;;;;;81.72;29.75;;;0.90;99.90;;;;;;6100384;23;20524;-82
2022/01/11 06:10:32;;;;;;;65.38;30.13;;;0.90;99.90;;;;;;6125024;23;20026;-81
2022/01/11 06:12:58;;;;;;;62.28;28.75;;;0.90;99.90;;;;;;6124783;23;20080;-82
2022/01/11 06:15:24;;;;;;;72.25;28.77;;;1.00;99.90;;;;;;6126676;23;20097;-82
2022/01/11 06:17:50;;;;;;;63.85;27.95;;;1.00;99.90;;;;;;6100593;23;20098;-83
2022/01/11 06:20:17;;;;;;;61.05;26.85;;;1.00;99.90;;;;;;6078309;23;20022;-82
2022/01/11 06:22:53;;;;;;;76.53;30.50;;;1.00;99.90;;;;;;6103926;23;20083;-83
2022/01/11 06:25:20;;;;;;;67.72;28.17;;;1.00;99.90;;;;;;6103753;23;20022;-84
2022/01/11 06:27:45;;;;;;;62.75;25.58;;;1.00;99.90;;;;;;6127415;23;20026;-81
2022/01/11 06:30:11;;;;;;;57.97;27.38;;;1.00;99.90;;;;;;6101227;23;20045;-82
2022/01/11 06:32:38;;;;;;;64.55;29.35;;;1.00;99.90;;;;;;6100418;23;20026;-81
2022/01/11 06:35:06;;;;;;;65.93;29.85;;;0.90;99.90;;;;;;6076625;23;20054;-83
2022/01/11 06:37:31;;;;;;;61.33;26.67;;;0.90;99.90;;;;;;6126939;23;20030;-82
2022/01/11 06:39:57;;;;;;;66.35;28.60;;;0.90;99.90;;;;;;6126788;23;20405;-81
2022/01/11 06:42:23;;;;;;;73.75;29.35;;;1.00;99.90;;;;;;6126932;23;20025;-81
2022/01/11 06:44:50;;;;;;;69.53;28.67;;;0.90;99.90;;;;;;6076612;23;20076;-81
2022/01/11 06:47:16;;;;;;;64.85;26.92;;;0.90;99.90;;;;;;6125268;23;20133;-81
2022/01/11 06:49:41;;;;;;;65.07;26.75;;;0.90;99.90;;;;;;6125810;23;20089;-82
2022/01/11 06:52:07;;;;;;;53.03;26.33;;;0.90;99.90;;;;;;6100925;23;20021;-82
2022/01/11 06:54:42;;;;;;;62.72;27.08;;;0.90;99.90;;;;;;6053849;23;20557;-82
2022/01/11 06:57:10;;;;;;;57.28;27.45;;;0.90;99.90;;;;;;6103091;23;20026;-81
2022/01/11 06:59:37;;;;;;;56.42;24.83;;;0.90;99.90;;;;;;6076749;23;20022;-82
2022/01/11 07:02:07;;;;;;;49.72;24.35;;;0.90;99.90;;;;;;6125408;23;20029;-81
2022/01/11 07:04:34;;;;;;;59.55;25.02;;;0.90;99.90;;;;;;6101173;23;20026;-82
2022/01/11 07:06:59;;;;;;;57.60;24.23;;;0.90;99.90;;;;;;6126697;23;20466;-82
2022/01/11 07:09:25;;;;;;;58.20;25.20;;;0.90;99.90;;;;;;6100066;23;20022;-82
2022/01/11 07:11:51;;;;;;;52.45;23.00;;;0.90;99.90;;;;;;6126091;23;20030;-81
2022/01/11 07:14:17;;;;;;;57.17;25.00;;;0.80;99.90;;;;;;6092710;23;20018;-81
2022/01/11 07:16:48;;;;;;;55.10;22.63;;;0.90;99.90;;;;;;6094444;23;20034;-82
2022/01/11 07:19:16;;;;;;;55.92;24.80;;;0.90;99.90;;;;;;6093894;23;20061;-82
2022/01/11 07:21:44;;;;;;;55.47;24.58;;;0.80;99.90;;;;;;6052081;23;20031;-82
2022/01/11 07:24:13;;;;;;;54.50;24.92;;;0.80;99.90;;;;;;6075511;23;20453;-82
2022/01/11 07:26:40;;;;;;;51.13;23.15;;;0.80;99.90;;;;;;6095556;23;20506;-81
2022/01/11 07:29:12;;;;;;;49.55;23.65;;;0.80;99.90;;;;;;6071982;23;20022;-82
2022/01/11 07:31:45;;;;;;;48.15;20.92;;;0.80;99.90;;;;;;6075635;23;20044;-84
2022/01/11 07:34:11;;;;;;;51.90;21.23;;;0.80;99.90;;;;;;6093782;23;20022;-82
2022/01/11 07:36:37;;;;;;;46.45;19.52;;;0.80;99.90;;;;;;6070085;23;20026;-82
2022/01/11 07:39:06;;;;;;;49.97;20.33;;;0.80;99.90;;;;;;6069565;23;20030;-82
2022/01/11 07:41:31;;;;;;;48.08;22.45;;;0.80;99.90;;;;;;6094575;23;20036;-82
2022/01/11 07:43:57;;;;;;;48.65;20.52;;;0.80;99.90;;;;;;6094737;23;20026;-81
2022/01/11 07:46:26;;;;;;;43.80;20.00;;;0.80;99.90;;;;;;6124855;23;20097;-81
2022/01/11 07:48:52;;;;;;;43.45;21.02;;;0.80;99.90;;;;;;6123466;23;20025;-81
2022/01/11 07:51:18;;;;;;;47.70;24.00;;;0.80;99.90;;;;;;6075255;23;20390;-83
2022/01/11 07:53:44;;;;;;;46.80;21.02;;;0.70;99.90;;;;;;6123605;23;20029;-82
2022/01/11 07:56:10;;;;;;;47.40;21.33;;;0.70;99.90;;;;;;6100189;23;20022;-81
2022/01/11 07:58:36;;;;;;;56.50;21.95;;;0.70;99.90;;;;;;6124685;23;20469;-82
2022/01/11 08:01:03;;;;;;;44.00;19.38;;;0.70;99.90;;;;;;6051874;23;20112;-82
2022/01/11 08:03:31;;;;;;;55.30;20.60;;;0.60;99.90;;;;;;6098711;23;20073;-83
2022/01/11 08:05:57;;;;;;;52.88;20.48;;;0.60;99.90;;;;;;6125708;23;20041;-81
2022/01/11 08:08:23;;;;;;;49.35;22.33;;;0.60;99.90;;;;;;6126509;23;20026;-81
2022/01/11 08:10:48;;;;;;;44.83;20.60;;;0.60;99.90;;;;;;6125886;23;20022;-82
2022/01/11 08:13:15;;;;;;;50.38;20.08;;;0.60;99.90;;;;;;6126653;23;20375;-82
2022/01/11 08:15:45;;;;;;;40.33;20.77;;;0.60;99.90;;;;;;6129601;23;20041;-82
2022/01/11 08:18:11;;;;;;;45.95;20.25;;;0.60;99.90;;;;;;6132665;23;20473;-82
2022/01/11 08:20:37;;;;;;;45.28;19.60;;;0.60;99.90;;;;;;6123187;23;20022;-82
2022/01/11 08:23:03;;;;;;;48.80;20.40;;;0.60;99.90;;;;;;6124246;23;20026;-83
2022/01/11 08:25:29;;;;;;;46.45;21.00;;;0.60;99.90;;;;;;6098638;23;20319;-83
2022/01/11 08:27:56;;;;;;;45.83;20.88;;;0.60;99.90;;;;;;6040501;23;20027;-82
2022/01/11 08:30:22;;;;;;;42.67;19.88;;;0.60;99.90;;;;;;6017562;23;20031;-82
2022/01/11 08:32:48;;;;;;;39.88;18.50;;;0.60;99.90;;;;;;6041349;23;20340;-82
2022/01/11 08:35:14;;;;;;;42.38;19.88;;;0.60;99.90;;;;;;6040490;23;20066;-83
2022/01/11 08:37:40;;;;;;;44.25;19.50;;;0.60;99.90;;;;;;6040970;23;20025;-83
2022/01/11 08:40:06;;;;;;;42.58;19.98;;;0.60;99.90;;;;;;6041096;23;20027;-82
2022/01/11 08:42:32;;;;;;;39.03;18.45;;;0.60;99.90;;;;;;6065087;23;20124;-82
2022/01/11 08:45:00;;;;;;;44.05;19.13;;;0.70;99.90;;;;;;6016870;23;20035;-82
2022/01/11 08:47:30;;;;;;;49.08;20.90;;;0.60;99.90;;;;;;6017336;23;20030;-82
2022/01/11 08:49:59;;;;;;;46.85;21.17;;;0.60;99.90;;;;;;6040950;23;20054;-82
2022/01/11 08:52:28;;;;;;;42.42;20.25;;;0.60;99.90;;;;;;6040560;23;20532;-82
2022/01/11 08:54:55;;;;;;;44.20;21.55;;;0.60;99.90;;;;;;6041046;23;20394;-83
2022/01/11 08:57:21;;;;;;;40.42;19.23;;;0.60;99.90;;;;;;6040157;23;20082;-83
2022/01/11 08:59:48;;;;;;;42.83;19.10;;;0.60;99.90;;;;;;6093543;23;20032;-82
2022/01/11 09:02:14;;;;;;;35.35;17.85;;;0.50;99.90;;;;;;6127211;23;20026;-82
2022/01/11 09:04:41;;;;;;;42.28;19.17;;;0.50;99.90;;;;;;6100104;23;20018;-82
2022/01/11 09:07:10;;;;;;;42.00;18.77;;;0.60;99.90;;;;;;6126434;23;20098;-83
2022/01/11 09:09:36;;;;;;;42.05;19.38;;;0.60;99.90;;;;;;6075046;23;20055;-82
2022/01/11 09:12:05;;;;;;;41.45;19.50;;;0.50;99.90;;;;;;6099638;23;20034;-82
2022/01/11 09:14:35;;;;;;;45.17;19.48;;;0.50;99.90;;;;;;6081764;23;20022;-82
2022/01/11 09:17:02;;;;;;;41.10;18.77;;;0.50;99.90;;;;;;6109567;23;20026;-82
2022/01/11 09:19:30;;;;;;;42.15;19.33;;;0.50;99.90;;;;;;6108379;23;20022;-82
2022/01/11 09:21:56;;;;;;;41.33;19.33;;;0.60;99.90;;;;;;6080343;23;20033;-82
2022/01/11 09:24:29;;;;;;;39.95;18.00;;;0.60;99.90;;;;;;6098623;23;20104;-82
2022/01/11 09:26:58;;;;;;;38.50;19.20;;;0.50;99.90;;;;;;6098679;23;20496;-82
2022/01/11 09:29:39;;;;;;;39.05;18.60;;;0.60;99.90;;;;;;6097305;23;20022;-83
2022/01/11 09:32:07;;;;;;;37.83;18.80;;;0.60;99.90;;;;;;6076124;23;20365;-82
2022/01/11 09:34:33;;;;;;;45.90;21.08;;;0.50;99.90;;;;;;6122912;23;20109;-82
2022/01/11 09:36:58;;;;;;;45.15;19.40;;;0.50;99.90;;;;;;6099841;23;20053;-83
2022/01/11 09:39:25;;;;;;;43.75;20.27;;;0.50;99.90;;;;;;6101830;23;20485;-84
2022/01/11 09:41:52;;;;;;;38.60;18.40;;;0.50;99.90;;;;;;6129132;23;20022;-82
2022/01/11 09:44:18;;;;;;;37.03;18.67;;;0.50;99.90;;;;;;6126273;23;20029;-82
2022/01/11 09:46:44;;;;;;;44.05;19.98;;;0.50;99.90;;;;;;6100299;23;20446;-83
2022/01/11 09:49:10;;;;;;;38.53;19.17;;;0.50;99.90;;;;;;6053227;23;20378;-82
2022/01/11 09:51:36;;;;;;;42.50;20.33;;;0.60;99.90;;;;;;6125381;23;20026;-82
2022/01/11 09:54:04;;;;;;;42.83;19.70;;;0.60;99.90;;;;;;6100674;23;20477;-83
2022/01/11 09:56:30;;;;;;;44.70;22.20;;;0.60;99.90;;;;;;6125124;23;20462;-83
2022/01/11 09:58:57;;;;;;;42.35;19.42;;;0.60;99.90;;;;;;6099422;23;20022;-82
2022/01/11 10:01:26;;;;;;;43.67;20.13;;;0.70;99.90;;;;;;6100665;23;20026;-84
2022/01/11 10:04:18;;;;;;;45.15;20.10;;;0.70;99.90;;;;;;6124800;23;20041;-83
2022/01/11 10:06:53;;;;;;;41.30;19.08;;;0.70;99.90;;;;;;6076368;23;20022;-83
2022/01/11 10:09:21;;;;;;;41.92;19.05;;;0.80;99.90;;;;;;6077581;23;20025;-83
2022/01/11 10:12:19;;;;;;;49.45;22.15;;;0.80;99.90;;;;;;6057512;23;20629;-85
2022/01/11 10:15:09;;;;;;;50.33;21.50;;;0.90;99.90;;;;;;6055956;23;20402;-84
2022/01/11 10:17:57;;;;;;;44.97;20.30;;;1.20;99.90;;;;;;6110145;23;20022;-84
2022/01/11 10:20:25;;;;;;;46.53;22.30;;;1.20;99.90;;;;;;6104423;23;20061;-84
2022/01/11 10:23:16;;;;;;;44.70;20.90;;;1.20;99.90;;;;;;6101404;23;20022;-84
2022/01/11 10:25:45;;;;;;;43.35;20.30;;;1.20;99.90;;;;;;6076488;23;20033;-84
2022/01/11 10:28:14;;;;;;;47.47;21.63;;;1.20;99.90;;;;;;6102581;23;20026;-85
2022/01/11 10:30:40;;;;;;;45.67;22.23;;;1.30;99.90;;;;;;6105399;23;20053;-84
2022/01/11 10:33:08;;;;;;;45.42;22.70;;;1.30;99.90;;;;;;6129037;23;20536;-84
2022/01/11 10:35:42;;;;;;;41.20;21.92;;;1.40;99.90;;;;;;6078692;23;20131;-83
2022/01/11 10:38:10;;;;;;;43.30;21.20;;;1.40;99.90;;;;;;6101283;23;20088;-83
2022/01/11 10:40:38;;;;;;;45.78;21.85;;;1.60;99.90;;;;;;6077076;23;20254;-83
2022/01/11 10:43:10;;;;;;;43.67;21.70;;;1.70;99.90;;;;;;6101135;23;20030;-83
2022/01/11 10:45:39;;;;;;;47.30;22.48;;;1.80;99.90;;;;;;6100828;23;20350;-83
2022/01/11 10:48:08;;;;;;;46.90;22.50;;;1.70;99.90;;;;;;6126952;23;20032;-83
2022/01/11 10:50:37;;;;;;;47.42;23.42;;;1.70;99.90;;;;;;6124269;23;20037;-82
2022/01/11 10:53:23;;;;;;;47.33;23.48;;;1.60;99.90;;;;;;6100919;23;20026;-83
2022/01/11 10:55:55;;;;;;;44.17;21.90;;;1.70;99.90;;;;;;6101415;23;20452;-83
2022/01/11 10:58:24;;;;;;;42.72;20.42;;;1.70;99.90;;;;;;6075373;23;20540;-83
2022/01/11 11:00:55;;;;;;;45.72;23.83;;;1.60;99.90;;;;;;6101070;23;20324;-83
2022/01/11 11:03:23;;;;;;;56.35;24.35;;;1.60;99.90;;;;;;6124028;23;20057;-83
2022/01/11 11:05:52;;;;;;;48.95;24.98;;;1.60;99.90;;;;;;6124323;23;20025;-84
2022/01/11 11:08:23;;;;;;;49.60;22.83;;;1.60;99.90;;;;;;6101134;23;20122;-85
2022/01/11 11:10:50;;;;;;;46.00;23.00;;;1.60;99.90;;;;;;6101271;23;20029;-83
2022/01/11 11:13:21;;;;;;;49.15;23.30;;;1.60;99.90;;;;;;6125846;23;20319;-84
2022/01/11 11:15:51;;;;;;;46.80;23.35;;;1.60;99.90;;;;;;6102421;23;20025;-84
2022/01/11 11:18:44;;;;;;;47.97;20.92;;;1.70;99.90;;;;;;6128245;23;20064;-83
2022/01/11 11:21:14;;;;;;;45.72;22.95;;;1.70;99.90;;;;;;6103812;23;20044;-84
2022/01/11 11:23:40;;;;;;;49.97;22.02;;;1.70;99.90;;;;;;6101324;23;20089;-83
2022/01/11 11:26:06;;;;;;;51.03;22.35;;;1.80;99.90;;;;;;6126115;23;20145;-84
2022/01/11 11:28:32;;;;;;;46.08;21.95;;;1.80;99.90;;;;;;6076261;23;20061;-85
2022/01/11 11:30:58;;;;;;;44.08;20.70;;;1.90;99.90;;;;;;6099594;23;20018;-83
2022/01/11 11:33:25;;;;;;;43.58;21.73;;;1.90;99.90;;;;;;6100149;23;20100;-84
2022/01/11 11:35:51;;;;;;;46.97;22.15;;;2.00;99.90;;;;;;6100309;23;20022;-83
2022/01/11 11:38:20;;;;;;;48.00;21.23;;;2.10;99.90;;;;;;6099866;23;20062;-83
2022/01/11 11:40:51;;;;;;;43.47;21.55;;;2.20;99.90;;;;;;6127158;23;20064;-83
2022/01/11 11:43:17;;;;;;;40.58;20.17;;;2.30;99.90;;;;;;6076792;23;20026;-82
2022/01/11 11:45:44;;;;;;;42.90;21.20;;;2.30;99.90;;;;;;6126980;23;20334;-82
2022/01/11 11:48:15;;;;;;;42.38;21.20;;;2.30;99.90;;;;;;6124342;23;20021;-83
2022/01/11 11:50:53;;;;;;;43.45;21.45;;;2.40;99.90;;;;;;6075515;23;20026;-82
2022/01/11 11:53:31;;;;;;;35.20;18.92;;;2.40;99.90;;;;;;6126406;23;20026;-83
2022/01/11 11:56:21;;;;;;;38.60;19.10;;;2.40;99.90;;;;;;6076740;23;20034;-82
2022/01/11 11:58:57;;;;;;;40.22;18.45;;;2.50;99.90;;;;;;6126069;23;20089;-81
2022/01/11 12:01:42;;;;;;;40.47;19.52;;;2.50;99.90;;;;;;6126196;23;20041;-83
2022/01/11 12:04:31;;;;;;;37.65;18.83;;;2.50;99.90;;;;;;6099218;23;20084;-82
2022/01/11 12:07:00;;;;;;;41.65;19.15;;;2.60;99.90;;;;;;6065331;23;20022;-83
2022/01/11 12:09:32;;;;;;;41.83;20.10;;;2.50;99.90;;;;;;6060683;23;20025;-84
2022/01/11 12:12:09;;;;;;;41.50;21.48;;;2.60;99.90;;;;;;6100593;23;20152;-82
2022/01/11 12:14:42;;;;;;;38.53;18.23;;;2.60;99.90;;;;;;6074796;23;20450;-82
2022/01/11 12:17:18;;;;;;;39.83;19.63;;;2.60;99.90;;;;;;6124392;23;20026;-82
2022/01/11 12:19:53;;;;;;;40.08;17.73;;;2.60;99.90;;;;;;6124004;23;20398;-82
2022/01/11 12:22:21;;;;;;;;;;;2.70;99.90;;;;;;6100607;23;20026;-82
2022/01/11 12:24:49;;;;;;;36.17;17.30;;;2.70;99.90;;;;;;6072552;23;19921;-81
2022/01/11 12:27:19;;;;;;;34.60;18.95;;;2.70;99.90;;;;;;6094163;23;20100;-83
2022/01/11 12:29:54;;;;;;;41.05;20.23;;;2.70;99.90;;;;;;6070086;23;20018;-82
2022/01/11 12:32:20;;;;;;;37.78;18.25;;;2.80;99.90;;;;;;6094364;23;20431;-82
2022/01/11 12:34:46;;;;;;;31.23;16.17;;;2.80;99.90;;;;;;6094063;23;20077;-83
2022/01/11 12:37:36;;;;;;;40.75;19.65;;;2.80;99.90;;;;;;6070124;23;20406;-83
2022/01/11 12:40:36;;;;;;;37.47;19.30;;;2.80;99.90;;;;;;6069656;23;20030;-83
2022/01/11 12:43:06;;;;;;;33.25;17.65;;;2.80;99.90;;;;;;6096521;23;20022;-83
2022/01/11 12:45:58;;;;;;;36.10;18.95;;;2.90;99.90;;;;;;6094393;23;20030;-83
2022/01/11 12:48:50;;;;;;;44.03;18.50;;;2.90;99.90;;;;;;6094903;23;20410;-83
2022/01/11 12:51:37;;;;;;;36.00;16.75;;;2.90;99.90;;;;;;6095353;23;20505;-82
2022/01/11 12:54:31;;;;;;;37.25;17.33;;;3.00;99.90;;;;;;6096869;23;20058;-83